createdAt,value
2022-08-05T00:00:50.252Z,39.19
2022-08-05T00:03:18.160Z,39.02
2022-08-05T00:06:05.388Z,39.39
2022-08-05T00:08:36.107Z,39.60
2022-08-05T00:11:20.314Z,39.45
2022-08-05T00:13:53.058Z,39.34
2022-08-05T00:16:35.423Z,42.19
2022-08-05T00:19:05.213Z,40.37
2022-08-05T00:21:35.721Z,41.90
2022-08-05T00:24:10.386Z,40.07
2022-08-05T00:26:39.348Z,40.14
2022-08-05T00:29:18.274Z,40.24
2022-08-05T00:32:10.530Z,40.23
2022-08-05T00:34:56.279Z,40.90
2022-08-05T00:37:21.491Z,40.27
2022-08-05T00:42:42.516Z,40.71
2022-08-05T00:45:15.960Z,40.48
2022-08-05T00:47:56.476Z,40.57
2022-08-05T00:50:31.591Z,40.41
2022-08-05T00:52:59.169Z,40.94
2022-08-05T00:55:34.122Z,40.97
2022-08-05T00:58:11.145Z,40.79
2022-08-05T01:00:39.719Z,40.71
2022-08-05T01:03:08.202Z,41.27
2022-08-05T01:05:36.169Z,41.27
2022-08-05T01:08:42.111Z,41.40
2022-08-05T01:10:57.953Z,41.79
2022-08-05T01:13:57.557Z,43.25
2022-08-05T01:16:28.052Z,42.08
2022-08-05T01:19:12.069Z,41.79
2022-08-05T01:22:05.805Z,41.77
2022-08-05T01:24:49.043Z,42.14
2022-08-05T01:27:32.985Z,42.30
2022-08-05T01:30:05.047Z,42.10
2022-08-05T01:32:45.377Z,41.89
2022-08-05T01:35:50.886Z,42.04
2022-08-05T01:38:07.000Z,42.00
2022-08-05T01:40:35.290Z,42.61
2022-08-05T01:43:04.995Z,47.16
2022-08-05T01:45:43.124Z,43.08
2022-08-05T01:48:11.906Z,44.86
2022-08-05T01:50:50.791Z,42.82
2022-08-05T01:53:54.794Z,42.90
2022-08-05T01:56:10.714Z,42.87
2022-08-05T01:58:45.172Z,42.94
2022-08-05T02:01:15.590Z,43.43
2022-08-05T02:03:54.502Z,43.19
2022-08-05T02:06:37.892Z,43.58
2022-08-05T02:09:06.493Z,42.98
2022-08-05T02:11:47.021Z,43.20
2022-08-05T02:14:21.957Z,43.78
2022-08-05T02:16:53.405Z,43.38
2022-08-05T02:19:34.501Z,43.81
2022-08-05T02:22:06.645Z,43.68
2022-08-05T02:24:39.844Z,43.70
2022-08-05T02:27:13.075Z,43.94
2022-08-05T02:29:58.468Z,43.77
2022-08-05T02:32:31.719Z,43.74
2022-08-05T02:35:13.704Z,43.94
2022-08-05T02:37:47.798Z,44.09
2022-08-05T02:40:24.094Z,44.42
2022-08-05T02:42:55.072Z,44.13
2022-08-05T02:45:25.291Z,44.47
2022-08-05T02:48:07.072Z,44.25
2022-08-05T02:50:44.152Z,44.47
2022-08-05T02:53:18.645Z,44.55
2022-08-05T02:55:54.688Z,44.81
2022-08-05T02:58:29.990Z,44.73
2022-08-05T03:01:02.144Z,44.86
2022-08-05T03:03:33.751Z,45.15
2022-08-05T03:06:54.726Z,49.72
2022-08-05T03:08:52.203Z,52.29
2022-08-05T03:11:55.086Z,49.03
2022-08-05T03:14:13.334Z,50.04
2022-08-05T03:16:41.563Z,50.08
2022-08-05T03:19:17.105Z,48.32
2022-08-05T03:21:58.576Z,46.69
2022-08-05T03:24:29.800Z,47.57
2022-08-05T03:26:58.839Z,45.05
2022-08-05T03:29:45.107Z,45.25
2022-08-05T03:32:15.677Z,45.57
2022-08-05T03:34:50.809Z,44.72
2022-08-05T03:37:20.194Z,47.90
2022-08-05T03:39:59.022Z,47.06
2022-08-05T03:42:32.458Z,48.48
2022-08-05T03:45:22.785Z,48.77
2022-08-05T03:47:51.010Z,45.91
2022-08-05T03:50:21.237Z,46.93
2022-08-05T03:55:34.402Z,47.08
2022-08-05T03:56:04.209Z,46.52
2022-08-05T03:58:37.754Z,46.04
2022-08-05T04:01:11.200Z,45.82
2022-08-05T04:04:09.281Z,47.91
2022-08-05T04:06:35.459Z,46.89
2022-08-05T04:09:05.944Z,49.64
2022-08-05T04:11:50.437Z,50.28
2022-08-05T04:14:30.054Z,47.72
2022-08-05T04:16:59.937Z,47.33
2022-08-05T04:19:29.054Z,47.62
2022-08-05T04:22:08.433Z,50.47
2022-08-05T04:24:38.745Z,47.75
2022-08-05T04:27:12.774Z,47.20
2022-08-05T04:29:40.634Z,48.92
2022-08-05T04:32:09.311Z,47.79
2022-08-05T04:34:43.069Z,47.89
2022-08-05T04:37:12.868Z,49.51
2022-08-05T04:39:40.639Z,48.54
2022-08-05T04:42:09.213Z,49.26
2022-08-05T04:44:36.792Z,47.68
2022-08-05T04:47:08.838Z,48.28
2022-08-05T04:49:38.768Z,47.95
2022-08-05T04:52:27.492Z,49.37
2022-08-05T04:54:57.502Z,48.82
2022-08-05T04:57:28.816Z,48.94
2022-08-05T04:59:57.413Z,48.83
2022-08-05T05:02:36.766Z,49.54
2022-08-05T05:05:26.553Z,50.18
2022-08-05T05:08:02.383Z,48.85
2022-08-05T05:10:33.499Z,47.42
2022-08-05T05:13:01.909Z,48.83
2022-08-05T05:15:57.694Z,48.85
2022-08-05T05:18:31.315Z,48.35
2022-08-05T05:21:03.122Z,48.10
2022-08-05T05:23:39.374Z,47.45
2022-08-05T05:26:28.009Z,47.58
2022-08-05T05:28:56.542Z,47.49
2022-08-05T05:31:24.799Z,47.16
2022-08-05T05:33:59.438Z,46.38
2022-08-05T05:36:29.873Z,46.53
2022-08-05T05:38:59.277Z,45.95
2022-08-05T05:41:40.605Z,45.97
2022-08-05T05:44:36.954Z,45.61
2022-08-05T05:46:58.238Z,45.83
2022-08-05T05:49:25.957Z,46.01
2022-08-05T05:51:53.639Z,44.67
2022-08-05T05:54:49.646Z,45.23
2022-08-05T05:57:13.759Z,46.32
2022-08-05T05:59:47.139Z,45.85
2022-08-05T06:02:16.582Z,46.90
2022-08-05T06:04:47.496Z,47.57
2022-08-05T06:07:17.041Z,47.83
2022-08-05T06:10:01.364Z,48.89
2022-08-05T06:12:32.045Z,49.28
2022-08-05T06:15:01.648Z,48.86
2022-08-05T06:17:31.069Z,49.97
2022-08-05T06:19:59.768Z,49.12
2022-08-05T06:22:29.134Z,50.56
2022-08-05T06:24:58.893Z,50.87
2022-08-05T06:28:10.501Z,51.08
2022-08-05T06:30:17.021Z,51.34
2022-08-05T06:32:47.992Z,51.70
2022-08-05T06:36:03.574Z,51.67
2022-08-05T06:38:11.557Z,52.11
2022-08-05T06:40:42.155Z,51.54
2022-08-05T06:43:58.654Z,52.08
2022-08-05T06:46:03.738Z,51.93
2022-08-05T06:48:54.503Z,52.05
2022-08-05T06:51:29.915Z,50.84
2022-08-05T06:53:58.928Z,51.28
2022-08-05T06:56:28.625Z,51.38
2022-08-05T06:58:56.476Z,51.14
2022-08-05T07:01:27.643Z,51.18
2022-08-05T07:04:00.413Z,50.29
2022-08-05T07:06:28.842Z,51.44
2022-08-05T07:08:59.065Z,51.34
2022-08-05T07:11:46.653Z,51.08
2022-08-05T07:14:42.964Z,49.65
2022-08-05T07:18:00.457Z,49.45
2022-08-05T07:20:33.879Z,48.90
2022-08-05T07:23:26.358Z,49.08
2022-08-05T07:25:59.041Z,49.14
2022-08-05T07:28:28.296Z,49.03
2022-08-05T07:30:55.975Z,48.32
2022-08-05T07:33:37.209Z,48.65
2022-08-05T07:36:20.095Z,49.58
2022-08-05T07:38:49.172Z,49.10
2022-08-05T07:42:13.174Z,48.97
2022-08-05T07:44:19.656Z,49.30
2022-08-05T07:46:49.767Z,48.81
2022-08-05T07:49:19.181Z,48.62
2022-08-05T07:51:53.186Z,49.08
2022-08-05T07:54:30.671Z,48.84
2022-08-05T07:57:41.529Z,48.58
2022-08-05T08:00:11.482Z,49.17
2022-08-05T08:05:49.724Z,48.92
2022-08-05T08:08:31.917Z,48.46
2022-08-05T08:11:08.871Z,48.67
2022-08-05T08:16:51.049Z,47.98
2022-08-05T08:20:21.924Z,47.58
2022-08-05T08:22:39.069Z,47.14
2022-08-05T08:25:16.178Z,47.06
2022-08-05T08:27:53.341Z,46.71
2022-08-05T08:31:17.503Z,47.33
2022-08-05T08:34:05.992Z,46.19
2022-08-05T08:36:48.876Z,45.73
2022-08-05T08:39:18.585Z,46.50
2022-08-05T08:41:50.872Z,45.54
2022-08-05T08:45:19.857Z,44.74
2022-08-05T08:48:07.507Z,44.18
2022-08-05T08:51:04.068Z,43.90
2022-08-05T08:53:44.291Z,43.77
2022-08-05T08:56:13.695Z,43.84
2022-08-05T09:03:11.474Z,43.03
2022-08-05T09:06:07.613Z,43.11
2022-08-05T09:09:15.692Z,42.40
2022-08-05T09:12:19.993Z,41.37
2022-08-05T09:14:58.822Z,42.51
2022-08-05T09:17:43.073Z,41.33
2022-08-05T09:20:36.424Z,40.40
2022-08-05T09:23:18.451Z,40.14
2022-08-05T09:26:01.829Z,40.16
2022-08-05T09:28:34.065Z,38.81
2022-08-05T09:31:18.277Z,39.17
2022-08-05T09:33:56.245Z,38.01
2022-08-05T09:36:27.392Z,37.83
2022-08-05T09:39:03.003Z,36.90
2022-08-05T09:41:33.224Z,35.99
2022-08-05T09:44:06.411Z,35.29
2022-08-05T09:46:35.711Z,35.82
2022-08-05T09:49:19.591Z,35.66
2022-08-05T09:51:49.677Z,36.28
2022-08-05T09:54:21.375Z,34.75
2022-08-05T09:57:01.329Z,34.21
2022-08-05T09:59:35.184Z,34.37
2022-08-05T10:02:05.418Z,34.31
2022-08-05T10:04:39.760Z,35.37
2022-08-05T10:07:20.389Z,35.24
2022-08-05T10:10:13.972Z,34.20
2022-08-05T10:12:49.401Z,34.18
2022-08-05T10:15:21.574Z,34.31
2022-08-05T10:18:08.835Z,34.41
2022-08-05T10:20:40.014Z,33.58
2022-08-05T10:23:34.413Z,33.18
2022-08-05T10:26:02.163Z,33.69
2022-08-05T10:28:30.791Z,34.03
2022-08-05T10:32:54.348Z,32.36
2022-08-05T10:33:52.358Z,32.52
2022-08-05T10:36:23.616Z,33.29
2022-08-05T10:39:05.296Z,33.50
2022-08-05T10:41:47.356Z,32.15
2022-08-05T10:44:19.911Z,31.84
2022-08-05T10:46:50.940Z,32.75
2022-08-05T10:49:26.802Z,32.65
2022-08-05T10:52:00.219Z,33.06
2022-08-05T10:54:56.837Z,32.38
2022-08-05T10:57:30.929Z,32.01
2022-08-05T11:00:19.821Z,32.66
2022-08-05T11:03:24.646Z,33.87
2022-08-05T11:06:21.532Z,32.89
2022-08-05T11:09:39.292Z,33.04
2022-08-05T11:12:54.261Z,33.27
2022-08-05T11:16:00.174Z,33.71
2022-08-05T11:18:34.173Z,32.22
2022-08-05T11:21:03.080Z,33.00
2022-08-05T11:24:03.876Z,32.39
2022-08-05T11:26:33.366Z,32.75
2022-08-05T11:29:13.435Z,32.68
2022-08-05T11:31:56.609Z,32.91
2022-08-05T11:34:38.115Z,33.43
2022-08-05T11:38:26.378Z,33.32
2022-08-05T11:39:55.341Z,31.54
2022-08-05T11:42:30.555Z,32.79
2022-08-05T11:45:05.448Z,33.99
2022-08-05T11:47:49.384Z,33.30
2022-08-05T11:50:18.043Z,33.78
2022-08-05T11:52:48.849Z,33.83
2022-08-05T11:55:18.492Z,34.19
2022-08-05T11:58:09.717Z,34.24
2022-08-05T12:00:39.003Z,33.46
2022-08-05T12:03:28.467Z,32.64
2022-08-05T12:06:01.548Z,32.63
2022-08-05T12:08:32.693Z,32.65
2022-08-05T12:11:06.142Z,32.66
2022-08-05T12:13:48.478Z,33.24
2022-08-05T12:16:20.381Z,33.01
2022-08-05T12:18:56.546Z,32.99
2022-08-05T12:21:39.137Z,32.27
2022-08-05T12:24:09.371Z,31.42
2022-08-05T12:26:43.887Z,31.04
2022-08-05T12:29:15.890Z,31.85
2022-08-05T12:31:53.158Z,32.64
2022-08-05T12:34:26.676Z,30.84
2022-08-05T12:36:56.143Z,30.88
2022-08-05T12:39:34.376Z,32.24
2022-08-05T12:42:38.471Z,31.16
2022-08-05T12:45:09.479Z,31.38
2022-08-05T12:47:43.505Z,31.62
2022-08-05T12:50:30.845Z,30.73
2022-08-05T12:52:59.741Z,31.51
2022-08-05T12:55:32.902Z,30.44
2022-08-05T12:58:39.847Z,30.52
2022-08-05T13:02:02.134Z,30.51
2022-08-05T13:03:42.992Z,32.05
2022-08-05T13:06:16.563Z,30.94
2022-08-05T13:08:49.104Z,31.14
2022-08-05T13:11:25.299Z,30.68
2022-08-05T13:14:24.964Z,30.72
2022-08-05T13:17:04.774Z,30.35
2022-08-05T13:19:52.317Z,31.09
2022-08-05T13:22:27.809Z,30.30
2022-08-05T13:25:00.792Z,30.98
2022-08-05T13:27:38.453Z,31.26
2022-08-05T13:30:33.584Z,31.88
2022-08-05T13:33:00.902Z,30.79
2022-08-05T13:35:42.957Z,30.21
2022-08-05T13:38:30.311Z,29.85
2022-08-05T13:40:59.249Z,29.83
2022-08-05T13:43:44.916Z,30.00
2022-08-05T13:46:16.550Z,30.23
2022-08-05T13:49:03.970Z,29.69
2022-08-05T13:51:40.044Z,29.98
2022-08-05T13:54:11.736Z,30.51
2022-08-05T13:56:45.262Z,30.95
2022-08-05T13:59:24.885Z,31.57
2022-08-05T14:01:59.005Z,31.90
2022-08-05T14:04:49.695Z,31.78
2022-08-05T14:07:56.392Z,32.81
2022-08-05T14:10:11.278Z,32.06
2022-08-05T14:12:39.266Z,31.02
2022-08-05T14:16:05.475Z,32.75
2022-08-05T14:17:59.552Z,32.17
2022-08-05T14:20:29.412Z,31.95
2022-08-05T14:22:57.320Z,32.87
2022-08-05T14:25:28.132Z,32.56
2022-08-05T14:27:56.081Z,31.63
2022-08-05T14:30:26.708Z,30.87
2022-08-05T14:32:56.873Z,31.04
2022-08-05T14:35:37.201Z,30.78
2022-08-05T14:38:32.242Z,29.72
2022-08-05T14:41:06.017Z,30.35
2022-08-05T14:43:58.912Z,30.95
2022-08-05T14:46:29.038Z,30.53
2022-08-05T14:48:59.589Z,31.12
2022-08-05T14:51:34.796Z,30.47
2022-08-05T14:54:28.599Z,30.47
2022-08-05T14:56:53.727Z,31.15
2022-08-05T14:59:22.500Z,30.93
2022-08-05T15:01:50.757Z,30.69
2022-08-05T15:04:20.564Z,31.25
2022-08-05T15:06:51.231Z,31.66
2022-08-05T15:09:51.816Z,31.16
2022-08-05T15:12:16.897Z,32.20
2022-08-05T15:14:49.854Z,32.59
2022-08-05T15:17:46.749Z,33.91
2022-08-05T15:20:15.518Z,33.29
2022-08-05T15:22:45.314Z,34.09
2022-08-05T15:25:14.059Z,33.41
2022-08-05T15:27:51.825Z,33.43
2022-08-05T15:30:20.383Z,33.65
2022-08-05T15:32:50.086Z,34.20
2022-08-05T15:35:17.705Z,33.41
2022-08-05T15:38:31.719Z,33.26
2022-08-05T15:41:00.728Z,33.32
2022-08-05T15:43:26.229Z,32.95
2022-08-05T15:46:00.356Z,33.21
2022-08-05T15:48:29.621Z,33.87
2022-08-05T15:50:57.400Z,33.95
2022-08-05T15:53:26.343Z,34.18
2022-08-05T15:56:02.134Z,33.94
2022-08-05T15:58:35.777Z,33.58
2022-08-05T16:01:16.060Z,34.65
2022-08-05T16:03:48.282Z,34.59
2022-08-05T16:06:19.695Z,35.14
2022-08-05T16:08:50.274Z,35.23
2022-08-05T16:11:20.804Z,35.46
2022-08-05T16:14:09.162Z,35.67
2022-08-05T16:16:36.978Z,36.08
2022-08-05T16:19:04.969Z,36.01
2022-08-05T16:22:00.135Z,36.57
2022-08-05T16:24:40.744Z,36.93
2022-08-05T16:27:08.681Z,37.72
2022-08-05T16:29:37.953Z,38.26
2022-08-05T16:32:06.470Z,38.22
2022-08-05T16:34:39.289Z,39.31
2022-08-05T16:38:03.293Z,39.11
2022-08-05T16:40:07.104Z,38.93
2022-08-05T16:42:41.332Z,39.40
2022-08-05T16:46:04.011Z,39.58
2022-08-05T16:48:02.653Z,39.21
2022-08-05T16:50:30.658Z,39.02
2022-08-05T16:53:01.685Z,38.94
2022-08-05T16:55:46.719Z,39.24
2022-08-05T16:58:14.904Z,39.63
2022-08-05T17:00:49.510Z,39.97
2022-08-05T17:03:20.097Z,40.10
2022-08-05T17:05:53.610Z,39.94
2022-08-05T17:08:33.584Z,39.89
2022-08-05T17:11:04.599Z,40.13
2022-08-05T17:13:41.386Z,39.97
2022-08-05T17:18:58.738Z,39.51
2022-08-05T17:21:35.507Z,39.57
2022-08-05T17:24:07.307Z,39.88
2022-08-05T17:26:48.193Z,39.51
2022-08-05T17:29:15.983Z,40.33
2022-08-05T17:31:59.073Z,39.87
2022-08-05T17:34:30.274Z,40.71
2022-08-05T17:37:00.339Z,40.72
2022-08-05T17:39:33.983Z,41.15
2022-08-05T17:42:28.612Z,41.43
2022-08-05T17:44:51.602Z,41.79
2022-08-05T17:47:22.594Z,41.13
2022-08-05T17:50:03.798Z,42.08
2022-08-05T17:52:53.254Z,42.28
2022-08-05T17:55:22.755Z,43.67
2022-08-05T17:57:55.271Z,44.33
2022-08-05T18:00:29.471Z,44.09
2022-08-05T18:02:58.581Z,44.60
2022-08-05T18:05:27.886Z,44.41
2022-08-05T18:07:56.740Z,43.90
2022-08-05T18:10:24.776Z,43.33
2022-08-05T18:12:53.416Z,44.44
2022-08-05T18:15:21.203Z,44.65
2022-08-05T18:17:59.024Z,45.49
2022-08-05T18:20:32.676Z,45.90
2022-08-05T18:23:09.036Z,45.01
2022-08-05T18:25:45.197Z,45.61
2022-08-05T18:28:16.053Z,46.18
2022-08-05T18:30:44.551Z,45.59
2022-08-05T18:33:13.545Z,45.83
2022-08-05T18:36:00.911Z,47.49
2022-08-05T18:38:31.682Z,45.19
2022-08-05T18:41:56.635Z,47.07
2022-08-05T18:43:49.067Z,47.39
2022-08-05T18:46:19.705Z,48.10
2022-08-05T18:48:52.017Z,48.00
2022-08-05T18:52:05.934Z,46.81
2022-08-05T18:54:28.335Z,48.45
2022-08-05T18:56:59.913Z,50.26
2022-08-05T18:59:43.268Z,48.87
2022-08-05T19:02:27.731Z,49.11
2022-08-05T19:05:02.885Z,50.60
2022-08-05T19:07:48.081Z,50.66
2022-08-05T19:10:16.117Z,51.16
2022-08-05T19:12:46.087Z,51.95
2022-08-05T19:15:57.602Z,51.75
2022-08-05T19:18:10.455Z,50.03
2022-08-05T19:20:46.514Z,52.30
2022-08-05T19:24:03.861Z,52.14
2022-08-05T19:26:04.225Z,53.33
2022-08-05T19:28:34.786Z,53.52
2022-08-05T19:31:04.957Z,51.70
2022-08-05T19:33:36.298Z,52.77
2022-08-05T19:36:06.198Z,51.07
2022-08-05T19:38:36.282Z,55.31
2022-08-05T19:41:07.150Z,52.19
2022-08-05T19:44:06.101Z,55.61
2022-08-05T19:46:29.568Z,53.24
2022-08-05T19:49:01.256Z,55.26
2022-08-05T19:52:04.459Z,58.33
2022-08-05T19:54:27.166Z,58.51
2022-08-05T19:56:59.490Z,58.42
2022-08-05T20:00:00.784Z,60.12
2022-08-05T20:02:17.600Z,59.62
2022-08-05T20:04:45.870Z,57.97
2022-08-05T20:07:14.226Z,59.29
2022-08-05T20:09:55.120Z,60.10
2022-08-05T20:12:25.123Z,58.04
2022-08-05T20:14:53.317Z,65.18
2022-08-05T20:17:23.682Z,66.13
2022-08-05T20:19:56.717Z,67.32
2022-08-05T20:22:27.168Z,65.37
2022-08-05T20:24:56.807Z,63.16
2022-08-05T20:27:27.323Z,61.73
2022-08-05T20:30:11.408Z,62.88
2022-08-05T20:32:45.154Z,62.16
2022-08-05T20:35:13.287Z,65.05
2022-08-05T20:38:08.088Z,65.36
2022-08-05T20:40:32.788Z,63.53
2022-08-05T20:43:00.479Z,61.69
2022-08-05T20:45:47.663Z,63.25
2022-08-05T20:48:16.368Z,62.11
2022-08-05T20:50:45.205Z,62.97
2022-08-05T20:53:16.154Z,63.83
2022-08-05T20:56:08.611Z,61.38
2022-08-05T20:58:37.171Z,62.06
2022-08-05T21:01:05.445Z,63.49
2022-08-05T21:03:34.607Z,62.68
2022-08-05T21:06:02.877Z,61.86
2022-08-05T21:08:41.845Z,66.11
2022-08-05T21:12:00.714Z,65.14
2022-08-05T21:14:01.518Z,65.78
2022-08-05T21:16:30.852Z,71.58
2022-08-05T21:19:00.274Z,73.56
2022-08-05T21:21:43.881Z,70.97
2022-08-05T21:24:13.349Z,73.36
2022-08-05T21:26:53.163Z,70.41
2022-08-05T21:29:26.493Z,63.50
2022-08-05T21:31:54.423Z,71.35
2022-08-05T21:34:23.551Z,70.03
2022-08-05T21:36:52.038Z,66.66
2022-08-05T21:39:26.542Z,64.72
2022-08-05T21:42:01.298Z,69.10
2022-08-05T21:44:30.267Z,69.81
2022-08-05T21:46:58.926Z,67.15
2022-08-05T21:50:00.253Z,69.20
2022-08-05T21:52:22.524Z,62.17
2022-08-05T21:54:55.818Z,71.18
2022-08-05T21:57:32.885Z,68.59
2022-08-05T22:00:05.823Z,69.54
2022-08-05T22:02:34.700Z,64.26
2022-08-05T22:05:02.328Z,71.05
2022-08-05T22:07:40.521Z,66.65
2022-08-05T22:10:26.750Z,70.03
2022-08-05T22:12:57.496Z,74.89
2022-08-05T22:16:00.529Z,64.66
2022-08-05T22:18:14.706Z,77.11
2022-08-05T22:20:42.869Z,72.93
2022-08-05T22:24:02.728Z,60.50
2022-08-05T22:26:34.764Z,61.83
2022-08-05T22:29:04.642Z,59.60
2022-08-05T22:31:44.698Z,59.10
2022-08-05T22:34:25.444Z,61.74
2022-08-05T22:36:56.431Z,57.56
2022-08-05T22:39:30.980Z,55.19
2022-08-05T22:42:09.344Z,68.08
2022-08-05T22:44:42.546Z,67.55
2022-08-05T22:47:29.347Z,67.08
2022-08-05T22:50:21.694Z,63.39
2022-08-05T22:52:48.122Z,56.73
2022-08-05T22:55:19.257Z,55.68
2022-08-05T22:57:48.997Z,57.59
2022-08-05T23:00:20.742Z,62.56
2022-08-05T23:02:49.338Z,64.78
2022-08-05T23:05:17.375Z,64.87
2022-08-05T23:07:48.871Z,67.51
2022-08-05T23:10:19.873Z,69.92
2022-08-05T23:12:51.283Z,68.75
2022-08-05T23:15:21.402Z,68.59
2022-08-05T23:18:00.923Z,67.30
2022-08-05T23:20:30.727Z,67.99
2022-08-05T23:22:58.922Z,71.21
2022-08-05T23:25:52.477Z,68.99
2022-08-05T23:28:15.965Z,70.29
2022-08-05T23:30:53.446Z,64.59
2022-08-05T23:34:02.909Z,65.70
2022-08-05T23:36:13.773Z,63.07
2022-08-05T23:38:42.698Z,66.39
2022-08-05T23:41:11.020Z,67.08
2022-08-05T23:44:05.229Z,70.38
2022-08-05T23:46:28.326Z,67.52
2022-08-05T23:49:00.512Z,73.49
2022-08-05T23:51:54.367Z,66.35
2022-08-05T23:54:25.657Z,67.23
2022-08-05T23:56:55.152Z,71.40
2022-08-05T23:59:37.359Z,61.67
